Falls International Airport
KINL : rendu visible

Aérodrome :











RETROUVEZ-NOUS SUR...

 
LOGIN :

S'inscrire | Disclaimer

   EN    FR    IT 

 









Légende :    VFR   VFR Marginal   IFR   IFR Intensif   IFR Très Intensif
Visi : 
Plafond : 
>= 8 km
>= 3000ft
5 à 8 km
1000 à 3000 ft
1500m à 5 km
500 à 1000 ft
800 à 1500m
200 à 500 ft
< 800m
< 200 ft
Symboles :   Orages  Brouillard  Fortes neiges  Fortes précipitations  Vent > 20 kt






- Altitude de l'aérodrome : 1185 ft
- Code IATA : INL


KINL - Falls International

DERNIER METAR :
  • 191455Z AUTO 00000KT 1 1/2SM BR OVC002 M01/M01 A2969 RMK AO2 SLP070 T10061011 53008

METARs EXPIRÉS :
  • 191440Z AUTO 00000KT 1SM BR OVC002 M01/M01 A2968 RMK AO2 T10061011
  • 191414Z AUTO 17003KT 1/2SM FZFG OVC002 M01/M01 A2968 RMK AO2 T10061011
  • 191355Z AUTO 15004KT 1/4SM FZFG VV003 M01/M02 A2967 RMK AO2 SLP064 T10061017
  • 191353Z AUTO 15004KT 1/4SM FZFG VV003 M01/M02 A2967 RMK AO2
  • 191336Z AUTO 15003KT 1/2SM FZFG VV002 M01/M02 A2967 RMK AO2 T10061017
  • 191308Z AUTO 14003KT 1/4SM FZFG VV002 M01/M02 A2966 RMK AO2 T10111017
  • 191255Z AUTO 15003KT 1/2SM FZFG VV003 M01/M02 A2966 RMK AO2 SLP062 T10111017

TAF KINL
Valide du 19 à 13h jusqu'au 20 à 12h UTC


191305Z 1913/2012 VRB03KT 2SM BR VCSH OVC004
TEMPO 1913/1915 1/2SM FZFG VV003
FM191900 VRB04KT 5SM BR OVC005



MET'MAP, la Météo Aéronautique d'un coup d'oeil ! - Copyright ORBIFLY Décembre 2007 - Disclaimer

ORBIFLY MET'MAP TEAM :

Programmation & Développement : Alexandra Zaïnal
Conception & Développement : Baudouin d'Aumeries
Co-Programmation & Développement : Marc-Olivier Méhu
Soutien technique & logistique : Manuel Goepfert

Contact : metmap@orbifly.com




SOURCES & CREDITS :

   NOAA       Earth
Advisory